Time;durP1;ratioP1;P1;durP2;ratioP2;P2;SDS_P1;SDS_P2;PMS_P1;PMS_P2;Temp;Humidity;BMP_temperature;BMP_pressure;BME280_temperature;BME280_humidity;BME280_pressure;Samples;Min_cycle;Max_cycle;Signal;HPM_P1;HPM_P2
2022/08/19 00:00:19;;;;;;;25.20;10.30;;;;;;;;;;4996327;28;20026;-74
2022/08/19 00:02:46;;;;;;;31.05;10.25;;;;;;;;;;5000608;28;20038;-74
2022/08/19 00:05:13;;;;;;;22.65;9.35;;;;;;;;;;4998631;28;20033;-74
2022/08/19 00:07:40;;;;;;;23.58;9.93;;;;;;;;;;5004460;28;20042;-75
2022/08/19 00:10:06;;;;;;;27.45;10.27;;;;;;;;;;5003669;28;20030;-75
2022/08/19 00:12:33;;;;;;;30.23;10.63;;;;;;;;;;4995685;28;20376;-74
2022/08/19 00:14:59;;;;;;;29.92;10.45;;;;;;;;;;5002473;28;20026;-75
2022/08/19 00:17:25;;;;;;;22.63;10.13;;;;;;;;;;5002382;28;20075;-75
2022/08/19 00:19:51;;;;;;;21.40;9.77;;;;;;;;;;5006109;28;20060;-75
2022/08/19 00:22:18;;;;;;;15.68;7.78;;;;;;;;;;5004922;28;20030;-75
2022/08/19 00:24:45;;;;;;;19.15;7.95;;;;;;;;;;4999378;28;20052;-75
2022/08/19 00:27:11;;;;;;;17.52;7.40;;;;;;;;;;5002626;28;20026;-75
2022/08/19 00:29:38;;;;;;;18.67;7.80;;;;;;;;;;4999995;28;20042;-75
2022/08/19 00:32:05;;;;;;;15.82;7.65;;;;;;;;;;5000971;28;20088;-75
2022/08/19 00:34:31;;;;;;;16.92;7.57;;;;;;;;;;4997800;28;20057;-75
2022/08/19 00:36:57;;;;;;;18.75;8.05;;;;;;;;;;5000446;28;20030;-74
2022/08/19 00:39:23;;;;;;;23.23;7.75;;;;;;;;;;5004669;28;20084;-74
2022/08/19 00:41:51;;;;;;;17.52;7.60;;;;;;;;;;5004497;28;20022;-75
2022/08/19 00:44:23;;;;;;;15.50;7.53;;;;;;;;;;5005209;28;20121;-75
2022/08/19 00:46:51;;;;;;;24.05;9.32;;;;;;;;;;4999630;28;20018;-75
2022/08/19 00:49:38;;;;;;;21.13;8.60;;;;;;;;;;5004731;28;20037;-75
2022/08/19 00:52:14;;;;;;;13.38;7.38;;;;;;;;;;5000990;28;20374;-75
2022/08/19 00:54:40;;;;;;;19.58;8.50;;;;;;;;;;4998658;28;20364;-75
2022/08/19 00:57:09;;;;;;;20.13;7.80;;;;;;;;;;4993993;28;20022;-76
2022/08/19 00:59:37;;;;;;;15.70;7.53;;;;;;;;;;4998723;28;20050;-75
2022/08/19 01:02:04;;;;;;;22.15;8.05;;;;;;;;;;4994981;28;20106;-75
2022/08/19 01:04:30;;;;;;;19.50;8.68;;;;;;;;;;5001039;28;20029;-75
2022/08/19 01:06:56;;;;;;;23.50;8.65;;;;;;;;;;4997552;28;20014;-74
2022/08/19 01:09:23;;;;;;;21.88;9.32;;;;;;;;;;5003440;28;20053;-75
2022/08/19 01:11:49;;;;;;;26.25;8.95;;;;;;;;;;5004992;28;20022;-74
2022/08/19 01:14:16;;;;;;;21.77;8.68;;;;;;;;;;5000745;28;20034;-75
2022/08/19 01:16:43;;;;;;;13.63;7.95;;;;;;;;;;4994744;28;20082;-75
2022/08/19 01:19:28;;;;;;;17.10;8.05;;;;;;;;;;4998226;28;20057;-75
2022/08/19 01:22:06;;;;;;;25.35;9.18;;;;;;;;;;4998193;28;20523;-74
2022/08/19 01:24:32;;;;;;;26.42;8.98;;;;;;;;;;4998400;28;20186;-75
2022/08/19 01:26:59;;;;;;;24.33;8.77;;;;;;;;;;4993955;28;20026;-75
2022/08/19 01:29:25;;;;;;;18.90;8.30;;;;;;;;;;4998785;28;20037;-75
2022/08/19 01:31:53;;;;;;;16.77;6.72;;;;;;;;;;4995194;28;20027;-75
2022/08/19 01:34:19;;;;;;;19.63;7.22;;;;;;;;;;4997055;28;20117;-75
2022/08/19 01:36:47;;;;;;;13.50;6.93;;;;;;;;;;5001370;28;20009;-75
2022/08/19 01:39:17;;;;;;;18.23;7.20;;;;;;;;;;4995167;28;20378;-74
2022/08/19 01:41:43;;;;;;;19.58;7.68;;;;;;;;;;5001132;28;20611;-75
2022/08/19 01:44:10;;;;;;;17.13;6.78;;;;;;;;;;4998253;28;20131;-76
2022/08/19 01:46:37;;;;;;;23.15;7.43;;;;;;;;;;4996648;28;20348;-75
2022/08/19 01:49:04;;;;;;;17.10;6.70;;;;;;;;;;4998359;28;20026;-75
2022/08/19 01:51:30;;;;;;;20.40;7.13;;;;;;;;;;4998496;28;20030;-75
2022/08/19 01:53:57;;;;;;;19.02;6.55;;;;;;;;;;4998259;28;20113;-75
2022/08/19 01:56:24;;;;;;;16.95;6.70;;;;;;;;;;4997206;28;20029;-75
2022/08/19 01:58:55;;;;;;;15.90;6.60;;;;;;;;;;4997438;28;20540;-75
2022/08/19 02:01:21;;;;;;;12.10;6.68;;;;;;;;;;4996291;28;20490;-74
2022/08/19 02:03:48;;;;;;;15.63;7.20;;;;;;;;;;4998404;28;20053;-74
2022/08/19 02:06:15;;;;;;;13.60;5.90;;;;;;;;;;4998268;28;20507;-74
2022/08/19 02:08:41;;;;;;;14.43;6.10;;;;;;;;;;4998269;28;20458;-74
2022/08/19 02:11:07;;;;;;;14.77;7.05;;;;;;;;;;4996138;28;20058;-74
2022/08/19 02:13:34;;;;;;;16.02;6.50;;;;;;;;;;4998614;28;20154;-75
2022/08/19 02:16:00;;;;;;;18.15;7.15;;;;;;;;;;4988134;28;20462;-74
2022/08/19 02:18:27;;;;;;;16.10;6.38;;;;;;;;;;4998177;28;20379;-75
2022/08/19 02:20:53;;;;;;;16.20;6.28;;;;;;;;;;4986631;28;20410;-75
2022/08/19 02:23:19;;;;;;;17.27;7.05;;;;;;;;;;4997322;28;20034;-74
2022/08/19 02:25:46;;;;;;;18.65;6.07;;;;;;;;;;4999097;28;20034;-74
2022/08/19 02:28:13;;;;;;;14.63;5.95;;;;;;;;;;4996606;28;20022;-74
2022/08/19 02:30:41;;;;;;;16.70;5.78;;;;;;;;;;4997868;28;20029;-74
2022/08/19 02:33:07;;;;;;;13.88;5.55;;;;;;;;;;4995503;28;20363;-74
2022/08/19 02:35:33;;;;;;;10.60;5.50;;;;;;;;;;4993330;28;20056;-74
2022/08/19 02:40:52;;;;;;;15.50;4.97;;;;;;;;;;4998266;28;20038;-74
2022/08/19 02:43:20;;;;;;;16.10;5.50;;;;;;;;;;4998217;28;20057;-74
2022/08/19 02:45:47;;;;;;;16.40;5.40;;;;;;;;;;4996379;28;20022;-75
2022/08/19 02:48:14;;;;;;;18.88;5.68;;;;;;;;;;5002870;28;20023;-74
2022/08/19 02:50:40;;;;;;;12.25;4.95;;;;;;;;;;4986679;28;20037;-74
2022/08/19 02:53:08;;;;;;;16.13;5.15;;;;;;;;;;5000015;28;20036;-74
2022/08/19 02:55:34;;;;;;;20.02;5.40;;;;;;;;;;5000499;28;20498;-74
2022/08/19 02:58:00;;;;;;;15.82;5.32;;;;;;;;;;5000091;28;20026;-74
2022/08/19 03:00:27;;;;;;;20.25;5.68;;;;;;;;;;5003627;28;20019;-75
2022/08/19 03:02:53;;;;;;;24.65;6.45;;;;;;;;;;4997709;28;20033;-74
2022/08/19 03:05:19;;;;;;;15.73;6.00;;;;;;;;;;5001533;28;20021;-74
2022/08/19 03:07:46;;;;;;;14.75;5.00;;;;;;;;;;4995960;28;20027;-75
2022/08/19 03:10:12;;;;;;;18.75;6.28;;;;;;;;;;4999087;28;20026;-74
2022/08/19 03:12:39;;;;;;;23.27;6.75;;;;;;;;;;4998680;28;20036;-74
2022/08/19 03:15:07;;;;;;;25.95;6.25;;;;;;;;;;4991082;28;20026;-74
2022/08/19 03:17:33;;;;;;;21.33;6.07;;;;;;;;;;4994206;28;20026;-74
2022/08/19 03:19:59;;;;;;;15.73;5.35;;;;;;;;;;4990588;28;20055;-74
2022/08/19 03:22:25;;;;;;;15.75;5.50;;;;;;;;;;4992042;28;20034;-74
2022/08/19 03:24:51;;;;;;;15.57;6.07;;;;;;;;;;4989081;28;20034;-74
2022/08/19 03:27:18;;;;;;;20.48;6.22;;;;;;;;;;4992009;28;20027;-74
2022/08/19 03:29:44;;;;;;;22.20;6.32;;;;;;;;;;4992556;28;20122;-74
2022/08/19 03:32:11;;;;;;;21.95;6.60;;;;;;;;;;4988846;28;20065;-74
2022/08/19 03:34:38;;;;;;;17.40;5.95;;;;;;;;;;4992109;28;20103;-75
2022/08/19 03:37:09;;;;;;;18.63;5.60;;;;;;;;;;4990018;28;20557;-74
2022/08/19 03:39:36;;;;;;;21.45;7.03;;;;;;;;;;4992868;28;20034;-75
2022/08/19 03:42:02;;;;;;;20.10;6.28;;;;;;;;;;4987124;28;20065;-74
2022/08/19 03:44:32;;;;;;;17.58;6.10;;;;;;;;;;4993177;28;20052;-76
2022/08/19 03:46:59;;;;;;;27.17;6.20;;;;;;;;;;4994096;28;20033;-74
2022/08/19 03:49:26;;;;;;;23.50;6.18;;;;;;;;;;4990898;28;20201;-75
2022/08/19 03:51:53;;;;;;;25.90;6.90;;;;;;;;;;4992497;28;20029;-74
2022/08/19 03:54:22;;;;;;;24.55;5.90;;;;;;;;;;4988848;28;20026;-75
2022/08/19 03:56:49;;;;;;;20.02;5.82;;;;;;;;;;4994544;28;20088;-75
2022/08/19 03:59:17;;;;;;;22.92;6.10;;;;;;;;;;4988343;28;20033;-75
2022/08/19 04:01:43;;;;;;;19.55;6.13;;;;;;;;;;4989106;28;20506;-75
2022/08/19 04:04:10;;;;;;;22.50;6.47;;;;;;;;;;4988829;28;20038;-75
2022/08/19 04:06:38;;;;;;;20.58;6.50;;;;;;;;;;4988824;28;20045;-75
2022/08/19 04:09:05;;;;;;;24.67;6.65;;;;;;;;;;4989566;28;20022;-74
2022/08/19 04:11:34;;;;;;;21.15;6.40;;;;;;;;;;4986896;28;20093;-75
2022/08/19 04:14:01;;;;;;;22.05;6.40;;;;;;;;;;4991445;28;20038;-74
2022/08/19 04:16:30;;;;;;;21.02;5.97;;;;;;;;;;4987958;28;20023;-74
2022/08/19 04:18:59;;;;;;;21.75;6.43;;;;;;;;;;4990213;28;20157;-74
2022/08/19 04:21:27;;;;;;;31.38;7.10;;;;;;;;;;4988417;28;20037;-74
2022/08/19 04:23:54;;;;;;;21.95;6.55;;;;;;;;;;4991023;28;20642;-74
2022/08/19 04:26:22;;;;;;;30.02;7.82;;;;;;;;;;4991325;28;20033;-74
2022/08/19 04:28:48;;;;;;;19.15;5.65;;;;;;;;;;4987975;28;20105;-74
2022/08/19 04:31:19;;;;;;;24.20;7.43;;;;;;;;;;4990629;28;20095;-75
2022/08/19 04:33:45;;;;;;;30.70;7.47;;;;;;;;;;4994990;28;20045;-74
2022/08/19 04:36:20;;;;;;;29.48;6.68;;;;;;;;;;4995089;28;20416;-74
2022/08/19 04:38:46;;;;;;;24.55;6.75;;;;;;;;;;4995314;28;20089;-74
2022/08/19 04:43:57;;;;;;;24.45;7.53;;;;;;;;;;4996144;28;20056;-74
2022/08/19 04:46:23;;;;;;;29.35;7.43;;;;;;;;;;4996189;28;20058;-74
2022/08/19 04:48:49;;;;;;;23.52;6.75;;;;;;;;;;4993551;28;20031;-75
2022/08/19 04:51:16;;;;;;;24.52;6.28;;;;;;;;;;4988186;28;20030;-75
2022/08/19 04:53:43;;;;;;;21.85;6.50;;;;;;;;;;4992028;28;20109;-74
2022/08/19 04:56:11;;;;;;;25.45;6.80;;;;;;;;;;4985759;28;20418;-75
2022/08/19 04:58:37;;;;;;;22.20;7.25;;;;;;;;;;4977115;28;20018;-75
2022/08/19 05:01:04;;;;;;;26.45;7.18;;;;;;;;;;4985664;28;20034;-74
2022/08/19 05:03:33;;;;;;;23.90;6.80;;;;;;;;;;4986630;28;20632;-74
2022/08/19 05:06:07;;;;;;;24.30;6.45;;;;;;;;;;4985782;28;20084;-74
2022/08/19 05:08:34;;;;;;;28.42;6.93;;;;;;;;;;4988263;28;20062;-74
2022/08/19 05:11:00;;;;;;;29.58;6.43;;;;;;;;;;4987051;28;20029;-74
2022/08/19 05:13:26;;;;;;;18.38;5.45;;;;;;;;;;4986965;28;20064;-74
2022/08/19 05:15:56;;;;;;;25.52;5.97;;;;;;;;;;4993574;28;20611;-74
2022/08/19 05:23:57;;;;;;;22.35;6.70;;;;;;;;;;4986486;28;20580;-74
2022/08/19 05:26:25;;;;;;;30.98;6.20;;;;;;;;;;4990507;28;20022;-74
2022/08/19 05:28:52;;;;;;;28.88;7.00;;;;;;;;;;4986963;28;20435;-74
2022/08/19 05:31:18;;;;;;;27.30;6.10;;;;;;;;;;4990144;28;20080;-74
2022/08/19 05:33:44;;;;;;;20.77;5.57;;;;;;;;;;4992450;28;20022;-74
2022/08/19 05:36:10;;;;;;;23.23;5.30;;;;;;;;;;4987880;28;20559;-74
2022/08/19 05:38:36;;;;;;;26.33;5.43;;;;;;;;;;4985938;28;20244;-80
2022/08/19 05:41:09;;;;;;;23.58;5.53;;;;;;;;;;4990826;28;20458;-77
2022/08/19 05:43:36;;;;;;;27.95;6.45;;;;;;;;;;4978563;28;20045;-80
2022/08/19 05:46:05;;;;;;;23.85;6.07;;;;;;;;;;4988253;28;20061;-80
2022/08/19 05:48:31;;;;;;;33.78;7.10;;;;;;;;;;4994421;28;20038;-81
2022/08/19 05:50:59;;;;;;;22.50;5.72;;;;;;;;;;4987442;28;20022;-80
2022/08/19 05:53:25;;;;;;;21.88;5.53;;;;;;;;;;4988308;28;20030;-81
2022/08/19 05:55:51;;;;;;;20.85;6.63;;;;;;;;;;4966552;28;20220;-80
2022/08/19 05:58:18;;;;;;;19.30;5.20;;;;;;;;;;4988330;28;20116;-79
2022/08/19 06:00:45;;;;;;;18.92;4.93;;;;;;;;;;4989032;28;20632;-79
2022/08/19 06:03:11;;;;;;;24.00;5.68;;;;;;;;;;4985259;28;20105;-76
2022/08/19 06:05:37;;;;;;;15.15;5.25;;;;;;;;;;4987659;28;20083;-76
2022/08/19 06:08:04;;;;;;;17.75;4.97;;;;;;;;;;4986982;28;20032;-76
2022/08/19 06:10:30;;;;;;;22.08;5.93;;;;;;;;;;4988979;28;20537;-77
2022/08/19 06:12:56;;;;;;;22.95;5.30;;;;;;;;;;4972020;28;20449;-76
2022/08/19 06:15:25;;;;;;;19.60;4.57;;;;;;;;;;4988712;28;20034;-77
2022/08/19 06:17:51;;;;;;;19.73;5.30;;;;;;;;;;4986449;28;20041;-76
2022/08/19 06:20:20;;;;;;;20.05;4.90;;;;;;;;;;4991391;28;20050;-75
2022/08/19 06:22:48;;;;;;;17.33;5.32;;;;;;;;;;4983229;28;20174;-76
2022/08/19 06:25:16;;;;;;;21.85;5.35;;;;;;;;;;4996706;28;20065;-78
2022/08/19 06:27:43;;;;;;;20.23;5.43;;;;;;;;;;4993644;28;20029;-81
2022/08/19 06:30:12;;;;;;;18.70;5.00;;;;;;;;;;4996305;28;20105;-77
2022/08/19 06:32:38;;;;;;;20.20;5.03;;;;;;;;;;4994141;28;20033;-81
2022/08/19 06:35:05;;;;;;;22.00;5.45;;;;;;;;;;4994404;28;20022;-78
2022/08/19 06:37:31;;;;;;;13.55;4.50;;;;;;;;;;4991097;28;20022;-80
2022/08/19 06:39:57;;;;;;;15.55;5.28;;;;;;;;;;4995036;28;20057;-80
2022/08/19 06:42:23;;;;;;;19.02;5.07;;;;;;;;;;4989423;28;20230;-80
2022/08/19 06:44:50;;;;;;;15.48;4.10;;;;;;;;;;4969423;28;20391;-81
2022/08/19 06:47:18;;;;;;;21.02;4.82;;;;;;;;;;4995006;28;20036;-81
2022/08/19 06:49:44;;;;;;;15.88;4.32;;;;;;;;;;4985498;28;20171;-81
2022/08/19 06:52:14;;;;;;;16.77;4.65;;;;;;;;;;4984279;28;20023;-81
2022/08/19 06:54:43;;;;;;;14.15;4.68;;;;;;;;;;4986648;28;20384;-83
2022/08/19 06:57:19;;;;;;;14.48;3.72;;;;;;;;;;4990097;28;20033;-85
2022/08/19 06:59:45;;;;;;;17.60;4.22;;;;;;;;;;4977175;28;20038;-83
2022/08/19 07:02:11;;;;;;;14.00;3.70;;;;;;;;;;4974652;28;20394;-84
2022/08/19 07:04:38;;;;;;;13.30;3.88;;;;;;;;;;4984778;28;20042;-83
2022/08/19 07:07:07;;;;;;;13.77;3.90;;;;;;;;;;4987285;28;20053;-79
2022/08/19 07:09:36;;;;;;;21.60;4.68;;;;;;;;;;4977838;28;20112;-83
2022/08/19 07:12:04;;;;;;;12.95;4.25;;;;;;;;;;4991131;28;20018;-80
2022/08/19 07:14:30;;;;;;;20.73;4.70;;;;;;;;;;4986764;28;20026;-80
2022/08/19 07:16:57;;;;;;;18.45;3.85;;;;;;;;;;4986186;28;20098;-84
2022/08/19 07:19:26;;;;;;;12.75;3.83;;;;;;;;;;4987766;28;20027;-85
2022/08/19 07:21:53;;;;;;;14.65;3.88;;;;;;;;;;4988321;28;20609;-85
2022/08/19 07:24:20;;;;;;;14.77;3.75;;;;;;;;;;4991040;28;20034;-82
2022/08/19 07:26:46;;;;;;;15.50;4.25;;;;;;;;;;4989854;28;20021;-83
2022/08/19 07:29:13;;;;;;;43.80;6.80;;;;;;;;;;4990677;28;20552;-84
2022/08/19 07:31:40;;;;;;;16.48;4.05;;;;;;;;;;4988347;28;20018;-83
2022/08/19 07:34:07;;;;;;;17.40;4.38;;;;;;;;;;4996282;28;20041;-86
2022/08/19 07:36:34;;;;;;;17.80;4.40;;;;;;;;;;4990813;28;20068;-83
2022/08/19 07:39:01;;;;;;;16.52;3.70;;;;;;;;;;4989393;28;20628;-86
2022/08/19 07:41:28;;;;;;;18.20;4.30;;;;;;;;;;4995784;28;20346;-75
2022/08/19 07:43:55;;;;;;;16.65;3.70;;;;;;;;;;4991905;28;20165;-79
2022/08/19 07:46:21;;;;;;;16.30;4.55;;;;;;;;;;4993116;28;20022;-77
2022/08/19 07:48:50;;;;;;;15.30;3.97;;;;;;;;;;4994844;28;20026;-78
2022/08/19 07:51:17;;;;;;;12.52;3.67;;;;;;;;;;4989809;28;20085;-83
2022/08/19 07:53:45;;;;;;;23.10;4.20;;;;;;;;;;4993075;28;20092;-83
2022/08/19 07:56:12;;;;;;;12.70;4.03;;;;;;;;;;4986161;28;20026;-83
2022/08/19 07:58:39;;;;;;;14.77;3.88;;;;;;;;;;4988410;28;20101;-86
2022/08/19 08:01:06;;;;;;;16.25;4.53;;;;;;;;;;4991278;28;20113;-85
2022/08/19 08:09:10;;;;;;;17.50;4.93;;;;;;;;;;4994427;28;20164;-84
2022/08/19 08:11:37;;;;;;;10.30;3.55;;;;;;;;;;4989859;28;20022;-77
2022/08/19 08:14:04;;;;;;;15.45;3.97;;;;;;;;;;4991578;28;20034;-85
2022/08/19 08:16:31;;;;;;;12.82;4.10;;;;;;;;;;4990034;28;20127;-84
2022/08/19 08:18:58;;;;;;;17.05;4.10;;;;;;;;;;4999578;28;20045;-85
2022/08/19 08:21:24;;;;;;;13.82;4.13;;;;;;;;;;4992742;28;20391;-85
2022/08/19 08:23:51;;;;;;;19.48;4.70;;;;;;;;;;4984888;28;20053;-86
2022/08/19 08:26:18;;;;;;;14.25;4.35;;;;;;;;;;4988002;28;20125;-86
2022/08/19 08:28:44;;;;;;;16.90;4.18;;;;;;;;;;4989451;28;20625;-85
2022/08/19 08:31:10;;;;;;;18.15;4.25;;;;;;;;;;4995102;28;20056;-87
2022/08/19 08:33:36;;;;;;;15.07;3.78;;;;;;;;;;4985005;28;20264;-83
2022/08/19 08:36:05;;;;;;;13.90;3.60;;;;;;;;;;4991300;28;20029;-83
2022/08/19 08:38:34;;;;;;;14.05;3.78;;;;;;;;;;4991244;28;20031;-82
2022/08/19 08:41:07;;;;;;;13.07;4.32;;;;;;;;;;4991468;28;20057;-82
2022/08/19 08:43:35;;;;;;;8.10;3.28;;;;;;;;;;4993041;28;20133;-82
2022/08/19 08:46:31;;;;;;;8.57;2.88;;;;;;;;;;4989144;28;20049;-82
2022/08/19 08:49:18;;;;;;;16.98;3.75;;;;;;;;;;4976631;28;20031;-82
2022/08/19 08:51:47;;;;;;;10.98;3.38;;;;;;;;;;4974720;28;20478;-82
2022/08/19 08:54:14;;;;;;;8.52;3.13;;;;;;;;;;4985754;28;20050;-83
2022/08/19 08:56:42;;;;;;;11.00;3.53;;;;;;;;;;4992874;28;20216;-82
2022/08/19 08:59:13;;;;;;;11.43;3.15;;;;;;;;;;4988310;28;20030;-82
2022/08/19 09:01:39;;;;;;;9.65;3.60;;;;;;;;;;4988943;28;20037;-78
2022/08/19 09:04:06;;;;;;;12.93;3.28;;;;;;;;;;4978385;28;20041;-81
2022/08/19 09:06:39;;;;;;;11.68;3.53;;;;;;;;;;4988942;28;20027;-81
2022/08/19 09:09:10;;;;;;;10.05;3.15;;;;;;;;;;4989693;28;20486;-81
2022/08/19 09:11:36;;;;;;;10.57;3.00;;;;;;;;;;4987919;28;20030;-81
2022/08/19 09:14:18;;;;;;;10.80;2.65;;;;;;;;;;4989257;28;20371;-79
2022/08/19 09:16:44;;;;;;;13.40;3.55;;;;;;;;;;4987315;28;20190;-80
2022/08/19 09:19:12;;;;;;;8.30;2.97;;;;;;;;;;4989283;28;20144;-80
2022/08/19 09:21:38;;;;;;;9.70;3.00;;;;;;;;;;4987400;28;20065;-79
2022/08/19 09:24:05;;;;;;;6.65;2.83;;;;;;;;;;4988801;28;20117;-79
2022/08/19 09:26:32;;;;;;;8.80;2.70;;;;;;;;;;4985748;28;20015;-80
2022/08/19 09:28:59;;;;;;;10.32;3.38;;;;;;;;;;4989623;28;20109;-80
2022/08/19 09:31:28;;;;;;;7.13;2.72;;;;;;;;;;4987872;28;20018;-80
2022/08/19 09:33:57;;;;;;;10.13;2.95;;;;;;;;;;4986295;28;20612;-80
2022/08/19 09:36:24;;;;;;;10.63;2.88;;;;;;;;;;4988707;28;20088;-80
2022/08/19 09:38:51;;;;;;;9.30;2.47;;;;;;;;;;4986324;28;20322;-80
2022/08/19 09:41:21;;;;;;;12.57;3.70;;;;;;;;;;4991754;28;20028;-78
2022/08/19 09:43:51;;;;;;;12.30;3.10;;;;;;;;;;4988212;28;20049;-78
2022/08/19 09:46:20;;;;;;;8.63;2.80;;;;;;;;;;4989642;28;20378;-78
2022/08/19 09:48:48;;;;;;;7.15;2.45;;;;;;;;;;4993186;28;20022;-78
2022/08/19 09:51:15;;;;;;;10.18;2.90;;;;;;;;;;4987130;28;20097;-77
2022/08/19 09:53:42;;;;;;;8.00;3.35;;;;;;;;;;4988890;28;20022;-77
2022/08/19 09:56:09;;;;;;;9.45;2.75;;;;;;;;;;4975327;28;20087;-77
2022/08/19 09:58:35;;;;;;;7.90;2.83;;;;;;;;;;4990572;28;20066;-77
2022/08/19 10:01:02;;;;;;;6.95;2.50;;;;;;;;;;4991349;28;20034;-76
2022/08/19 10:03:29;;;;;;;8.00;2.90;;;;;;;;;;4984584;28;20615;-77
2022/08/19 10:05:55;;;;;;;7.85;2.58;;;;;;;;;;4987318;28;20723;-76
2022/08/19 10:08:25;;;;;;;7.70;2.88;;;;;;;;;;4987265;28;20080;-77
2022/08/19 10:10:52;;;;;;;9.15;2.85;;;;;;;;;;4989755;28;20029;-76
2022/08/19 10:13:22;;;;;;;8.00;2.95;;;;;;;;;;4984045;28;20113;-76
2022/08/19 10:15:50;;;;;;;5.83;2.53;;;;;;;;;;4988789;28;20829;-76
2022/08/19 10:18:19;;;;;;;9.73;2.47;;;;;;;;;;4986620;28;20030;-76
2022/08/19 10:20:47;;;;;;;8.43;2.50;;;;;;;;;;4989388;28;20126;-77
2022/08/19 10:23:14;;;;;;;7.93;3.05;;;;;;;;;;4984473;28;20061;-77
2022/08/19 10:25:41;;;;;;;5.35;2.28;;;;;;;;;;4989499;28;20034;-77
2022/08/19 10:28:07;;;;;;;7.20;2.58;;;;;;;;;;4986631;28;20023;-77
2022/08/19 10:30:34;;;;;;;7.50;2.80;;;;;;;;;;4987570;28;20062;-77
2022/08/19 10:33:00;;;;;;;7.90;2.70;;;;;;;;;;4985981;28;20519;-78
2022/08/19 10:35:28;;;;;;;8.18;2.45;;;;;;;;;;4982804;28;20168;-78
2022/08/19 10:37:58;;;;;;;9.43;2.97;;;;;;;;;;4984349;28;20057;-79
2022/08/19 10:40:25;;;;;;;10.30;3.10;;;;;;;;;;4984707;28;20034;-80
2022/08/19 10:42:51;;;;;;;7.57;2.75;;;;;;;;;;4988164;28;20032;-80
2022/08/19 10:45:17;;;;;;;6.80;2.20;;;;;;;;;;4969359;28;20129;-80
2022/08/19 10:47:44;;;;;;;10.18;3.05;;;;;;;;;;4976337;28;20066;-80
2022/08/19 10:52:55;;;;;;;6.53;3.53;;;;;;;;;;4984591;28;20033;-78
2022/08/19 10:58:22;;;;;;;7.30;2.50;;;;;;;;;;4986253;28;20101;-80
2022/08/19 11:00:56;;;;;;;10.32;2.90;;;;;;;;;;4987050;28;20190;-81
2022/08/19 11:03:22;;;;;;;9.13;2.70;;;;;;;;;;4982653;28;20121;-82
2022/08/19 11:05:58;;;;;;;7.07;2.88;;;;;;;;;;4975540;28;20120;-83
2022/08/19 11:08:26;;;;;;;6.90;2.20;;;;;;;;;;4991216;28;20329;-79
2022/08/19 11:10:56;;;;;;;7.30;2.65;;;;;;;;;;4987832;28;20066;-74
2022/08/19 11:13:23;;;;;;;7.75;2.25;;;;;;;;;;4983789;28;20034;-74
2022/08/19 11:15:56;;;;;;;6.47;2.35;;;;;;;;;;4992281;28;20025;-74
2022/08/19 11:18:23;;;;;;;7.00;2.22;;;;;;;;;;4990078;28;20668;-74
2022/08/19 11:20:49;;;;;;;7.57;2.13;;;;;;;;;;4992528;28;20042;-73
2022/08/19 11:23:15;;;;;;;8.13;2.53;;;;;;;;;;4991645;28;20032;-73
2022/08/19 11:25:41;;;;;;;8.02;2.70;;;;;;;;;;4992088;28;20026;-74
2022/08/19 11:28:07;;;;;;;9.27;2.90;;;;;;;;;;4989957;28;20037;-75
2022/08/19 11:30:33;;;;;;;6.05;2.75;;;;;;;;;;4989783;28;20034;-74
2022/08/19 11:33:00;;;;;;;6.43;2.67;;;;;;;;;;4995860;28;20026;-73
2022/08/19 11:35:27;;;;;;;7.80;2.80;;;;;;;;;;4989178;28;20117;-74
2022/08/19 11:37:53;;;;;;;6.78;2.47;;;;;;;;;;4992654;28;20077;-74
2022/08/19 11:40:19;;;;;;;5.55;2.45;;;;;;;;;;4992894;28;20030;-77
2022/08/19 11:42:55;;;;;;;3.50;2.30;;;;;;;;;;4993226;28;20046;-74
2022/08/19 11:45:22;;;;;;;8.05;2.80;;;;;;;;;;4988552;28;20039;-74
2022/08/19 11:47:49;;;;;;;6.30;2.95;;;;;;;;;;4991039;28;20026;-74
2022/08/19 11:50:15;;;;;;;3.92;2.40;;;;;;;;;;4989551;28;20026;-76
2022/08/19 11:52:42;;;;;;;6.68;2.72;;;;;;;;;;4994273;28;20042;-76
2022/08/19 11:55:08;;;;;;;9.57;2.70;;;;;;;;;;4998393;28;20041;-76
2022/08/19 11:57:35;;;;;;;6.18;2.47;;;;;;;;;;4989455;28;20028;-74
2022/08/19 12:00:01;;;;;;;5.00;2.47;;;;;;;;;;4987909;28;20030;-74
2022/08/19 12:02:27;;;;;;;6.15;2.65;;;;;;;;;;4996050;28;20018;-76
2022/08/19 12:04:54;;;;;;;6.78;2.40;;;;;;;;;;4999772;28;20038;-74
2022/08/19 12:07:20;;;;;;;4.43;2.15;;;;;;;;;;4992385;28;20030;-76
2022/08/19 12:09:46;;;;;;;7.90;2.88;;;;;;;;;;4986621;28;20022;-78
2022/08/19 12:12:13;;;;;;;11.30;2.88;;;;;;;;;;4983165;28;20607;-78
2022/08/19 12:14:39;;;;;;;5.65;2.88;;;;;;;;;;4991777;28;20109;-78
2022/08/19 12:17:07;;;;;;;7.47;2.40;;;;;;;;;;4992931;28;20033;-76
2022/08/19 12:19:33;;;;;;;9.52;2.50;;;;;;;;;;4994394;28;20627;-75
2022/08/19 12:22:02;;;;;;;5.93;2.60;;;;;;;;;;4989957;28;20034;-76
2022/08/19 12:24:31;;;;;;;4.38;2.13;;;;;;;;;;4981555;28;20037;-76
2022/08/19 12:26:58;;;;;;;8.52;2.55;;;;;;;;;;4991347;28;20088;-77
2022/08/19 12:29:28;;;;;;;5.45;2.38;;;;;;;;;;4989173;28;20097;-77
2022/08/19 12:32:00;;;;;;;7.32;2.58;;;;;;;;;;4991939;28;20105;-77
2022/08/19 12:34:29;;;;;;;5.32;2.65;;;;;;;;;;4986825;28;20184;-77
2022/08/19 12:36:55;;;;;;;5.60;2.63;;;;;;;;;;4992339;28;20056;-77
2022/08/19 12:39:22;;;;;;;7.13;2.65;;;;;;;;;;4994303;28;20494;-77
2022/08/19 12:41:48;;;;;;;6.93;2.60;;;;;;;;;;4989375;28;20034;-77
2022/08/19 12:44:15;;;;;;;8.27;2.63;;;;;;;;;;4987792;28;20044;-78
2022/08/19 12:47:04;;;;;;;6.80;2.65;;;;;;;;;;4991920;28;20243;-78
2022/08/19 12:49:33;;;;;;;5.32;2.50;;;;;;;;;;4999400;28;20033;-77
2022/08/19 12:52:00;;;;;;;4.60;2.53;;;;;;;;;;4989125;28;20084;-77
2022/08/19 12:54:26;;;;;;;6.22;2.50;;;;;;;;;;4984684;28;20045;-77
2022/08/19 12:56:52;;;;;;;4.97;2.47;;;;;;;;;;4996161;28;20501;-78
2022/08/19 12:59:18;;;;;;;5.55;2.40;;;;;;;;;;4993036;28;20093;-78
2022/08/19 13:01:45;;;;;;;4.65;2.50;;;;;;;;;;4992404;28;20054;-77
2022/08/19 13:04:11;;;;;;;5.13;2.50;;;;;;;;;;4983320;28;20046;-77
2022/08/19 13:06:38;;;;;;;7.38;2.92;;;;;;;;;;4990761;28;20050;-77
2022/08/19 13:09:05;;;;;;;5.82;2.53;;;;;;;;;;4996996;28;20030;-78
2022/08/19 13:11:33;;;;;;;5.68;2.90;;;;;;;;;;4998057;28;20030;-78
2022/08/19 13:13:59;;;;;;;5.80;2.45;;;;;;;;;;4989476;28;20022;-77
2022/08/19 13:16:27;;;;;;;4.35;2.55;;;;;;;;;;4989141;28;20593;-78
2022/08/19 13:18:54;;;;;;;4.00;2.42;;;;;;;;;;4994241;28;20421;-77
2022/08/19 13:21:20;;;;;;;6.20;2.92;;;;;;;;;;4988595;28;20033;-78
2022/08/19 13:23:48;;;;;;;7.25;2.90;;;;;;;;;;4987280;28;20049;-78
2022/08/19 13:26:14;;;;;;;5.25;2.67;;;;;;;;;;4988292;28;20018;-77
2022/08/19 13:34:12;;;;;;;5.25;2.80;;;;;;;;;;4986223;28;20048;-77
2022/08/19 13:36:39;;;;;;;6.45;2.60;;;;;;;;;;4986913;28;20026;-77
2022/08/19 13:39:07;;;;;;;5.18;2.42;;;;;;;;;;4988114;28;20029;-77
2022/08/19 13:41:34;;;;;;;6.35;2.80;;;;;;;;;;4988676;28;20026;-77
2022/08/19 13:44:01;;;;;;;7.85;2.83;;;;;;;;;;4985989;28;20070;-75
2022/08/19 13:46:30;;;;;;;7.22;2.60;;;;;;;;;;4989035;28;20197;-76
2022/08/19 13:48:56;;;;;;;5.57;2.25;;;;;;;;;;4990540;28;20033;-77
2022/08/19 13:51:23;;;;;;;4.43;2.30;;;;;;;;;;4986539;28;20030;-80
2022/08/19 13:53:50;;;;;;;4.75;2.65;;;;;;;;;;4985459;28;20034;-80
2022/08/19 13:56:18;;;;;;;4.55;2.42;;;;;;;;;;4986204;28;20769;-79
2022/08/19 13:58:44;;;;;;;9.50;2.42;;;;;;;;;;4989943;28;20030;-79
2022/08/19 14:01:11;;;;;;;6.55;2.80;;;;;;;;;;4984068;28;20495;-80
2022/08/19 14:03:38;;;;;;;8.18;2.92;;;;;;;;;;4975610;28;20080;-79
2022/08/19 14:06:04;;;;;;;5.57;2.65;;;;;;;;;;4987588;28;20394;-79
2022/08/19 14:08:32;;;;;;;5.13;2.72;;;;;;;;;;4988378;28;20023;-78
2022/08/19 14:10:58;;;;;;;5.90;2.53;;;;;;;;;;4990223;28;20029;-78
2022/08/19 14:13:25;;;;;;;6.72;2.92;;;;;;;;;;4984462;28;20097;-79
2022/08/19 14:15:52;;;;;;;5.57;2.63;;;;;;;;;;4994668;28;20030;-78
2022/08/19 14:18:19;;;;;;;5.63;2.63;;;;;;;;;;4987399;28;20053;-80
2022/08/19 14:20:45;;;;;;;5.60;2.58;;;;;;;;;;4988769;28;20129;-81
2022/08/19 14:23:13;;;;;;;8.00;3.00;;;;;;;;;;4985444;28;20037;-80
2022/08/19 14:25:40;;;;;;;4.03;2.58;;;;;;;;;;4989445;28;20489;-79
2022/08/19 14:28:07;;;;;;;7.80;2.90;;;;;;;;;;4988047;28;20030;-80
2022/08/19 14:30:34;;;;;;;7.40;3.10;;;;;;;;;;4986498;28;20060;-80
2022/08/19 14:33:01;;;;;;;5.85;2.55;;;;;;;;;;4990743;28;20116;-79
2022/08/19 14:35:29;;;;;;;5.05;2.95;;;;;;;;;;4984917;28;20018;-78
2022/08/19 14:37:57;;;;;;;4.47;2.47;;;;;;;;;;4989450;28;20026;-80
2022/08/19 14:40:28;;;;;;;5.15;2.35;;;;;;;;;;4984444;28;20482;-79
2022/08/19 14:42:59;;;;;;;;;;;;;;;;;;4989874;28;20066;-80
2022/08/19 14:45:26;;;;;;;6.40;2.90;;;;;;;;;;4986090;28;19925;-80
2022/08/19 14:47:52;;;;;;;7.13;2.70;;;;;;;;;;4991385;28;20023;-79
2022/08/19 14:50:19;;;;;;;5.97;3.05;;;;;;;;;;4994062;28;20025;-78
2022/08/19 14:52:47;;;;;;;8.52;2.95;;;;;;;;;;4992006;28;20026;-80
2022/08/19 14:55:14;;;;;;;7.93;2.90;;;;;;;;;;4994624;28;20109;-80
2022/08/19 14:57:41;;;;;;;12.68;3.00;;;;;;;;;;4990907;28;20471;-74
2022/08/19 15:00:12;;;;;;;7.68;2.80;;;;;;;;;;4994938;28;20048;-73
2022/08/19 15:02:38;;;;;;;6.18;2.85;;;;;;;;;;4992683;28;20022;-73
2022/08/19 15:05:05;;;;;;;5.35;2.72;;;;;;;;;;4991930;28;20448;-74